SBPB/PHB METAR and TAF weather

Enter ICAO airport designator
Station Type Date Time Source
SBPB METAR 2021/07/27 19:45 UTC NOAA

SBPB 271945Z 06010KT 9999 FEW020 BKN100 29/24 Q1011


Station Type Date Time Source
SBPB Decoded METAR 2021/07/27 19:45 UTC NOAA

Parnaiba Aeroporto , Brazil (SBPB) 02-55S 041-45W
Jul 27, 2021 - 03:45 PM EDT / 2021.07.27 1945 UTC
Wind: from the ENE (060 degrees) at 12 MPH (10 KT):0
Visibility: greater than 7 mile(s):0
Sky conditions: mostly cloudy
Temperature: 84 F (29 C)
Dew Point: 75 F (24 C)
Relative Humidity: 74%
Pressure (altimeter): 29.85 in. Hg (1011 hPa)
ob: SBPB 271945Z 06010KT 9999 FEW020 BKN100 29/24 Q1011
cycle: 20

Station Type Date Time Source
SBPB TAF 2021/07/28 06:12 UTC NOAA

TAF SBPB 280310Z 2806/2818 08010KT 9999 FEW020 TN24/2809Z TX31/2815Z
BECMG 2812/2814 10008KT BKN020
BECMG 2815/2817 06013KT SCT020
RMK PFV

Example: see airport list